sensor_id;sensor_type;location;lat;lon;timestamp;P1;durP1;ratioP1;P2;durP2;ratioP2
46731;SDS011;32477;51.474;5.696;2023-05-13T00:00:01;11.77;;;9.20;;
46731;SDS011;32477;51.474;5.696;2023-05-13T00:02:27;17.17;;;9.45;;
46731;SDS011;32477;51.474;5.696;2023-05-13T00:04:52;11.25;;;8.68;;
46731;SDS011;32477;51.474;5.696;2023-05-13T00:07:18;14.02;;;8.90;;
46731;SDS011;32477;51.474;5.696;2023-05-13T00:09:44;13.93;;;9.32;;
46731;SDS011;32477;51.474;5.696;2023-05-13T00:12:09;13.43;;;9.25;;
46731;SDS011;32477;51.474;5.696;2023-05-13T00:14:35;14.77;;;8.85;;
46731;SDS011;32477;51.474;5.696;2023-05-13T00:17:01;12.73;;;8.88;;
46731;SDS011;32477;51.474;5.696;2023-05-13T00:19:28;16.40;;;9.18;;
46731;SDS011;32477;51.474;5.696;2023-05-13T00:21:54;16.33;;;8.95;;
46731;SDS011;32477;51.474;5.696;2023-05-13T00:24:20;19.13;;;8.30;;
46731;SDS011;32477;51.474;5.696;2023-05-13T00:26:46;17.75;;;8.85;;
46731;SDS011;32477;51.474;5.696;2023-05-13T00:29:11;13.52;;;8.32;;
46731;SDS011;32477;51.474;5.696;2023-05-13T00:31:37;16.08;;;8.38;;
46731;SDS011;32477;51.474;5.696;2023-05-13T00:34:03;14.90;;;8.60;;
46731;SDS011;32477;51.474;5.696;2023-05-13T00:36:28;12.02;;;8.10;;
46731;SDS011;32477;51.474;5.696;2023-05-13T00:38:54;17.65;;;8.80;;
46731;SDS011;32477;51.474;5.696;2023-05-13T00:41:20;16.13;;;8.18;;
46731;SDS011;32477;51.474;5.696;2023-05-13T00:43:47;13.13;;;8.10;;
46731;SDS011;32477;51.474;5.696;2023-05-13T00:46:13;12.65;;;8.20;;
46731;SDS011;32477;51.474;5.696;2023-05-13T00:48:39;16.13;;;8.40;;
46731;SDS011;32477;51.474;5.696;2023-05-13T00:51:05;10.80;;;8.27;;
46731;SDS011;32477;51.474;5.696;2023-05-13T00:53:32;16.08;;;9.05;;
46731;SDS011;32477;51.474;5.696;2023-05-13T00:55:58;14.02;;;8.15;;
46731;SDS011;32477;51.474;5.696;2023-05-13T00:58:24;19.20;;;8.93;;
46731;SDS011;32477;51.474;5.696;2023-05-13T01:07:06;14.20;;;9.23;;
46731;SDS011;32477;51.474;5.696;2023-05-13T01:12:27;11.82;;;9.13;;
46731;SDS011;32477;51.474;5.696;2023-05-13T01:20:13;12.90;;;9.13;;
46731;SDS011;32477;51.474;5.696;2023-05-13T01:22:42;18.05;;;10.10;;
46731;SDS011;32477;51.474;5.696;2023-05-13T01:25:07;17.70;;;9.23;;
46731;SDS011;32477;51.474;5.696;2023-05-13T01:27:33;17.30;;;9.60;;
46731;SDS011;32477;51.474;5.696;2023-05-13T01:29:59;18.77;;;10.30;;
46731;SDS011;32477;51.474;5.696;2023-05-13T01:32:26;12.43;;;8.73;;
46731;SDS011;32477;51.474;5.696;2023-05-13T01:34:52;13.23;;;9.00;;
46731;SDS011;32477;51.474;5.696;2023-05-13T01:37:19;16.90;;;10.00;;
46731;SDS011;32477;51.474;5.696;2023-05-13T01:39:45;12.57;;;9.65;;
46731;SDS011;32477;51.474;5.696;2023-05-13T01:42:11;18.65;;;10.38;;
46731;SDS011;32477;51.474;5.696;2023-05-13T01:44:37;13.75;;;9.52;;
46731;SDS011;32477;51.474;5.696;2023-05-13T01:47:02;14.07;;;9.95;;
46731;SDS011;32477;51.474;5.696;2023-05-13T01:49:28;16.20;;;10.30;;
46731;SDS011;32477;51.474;5.696;2023-05-13T01:51:54;20.10;;;11.10;;
46731;SDS011;32477;51.474;5.696;2023-05-13T01:54:20;14.80;;;10.30;;
46731;SDS011;32477;51.474;5.696;2023-05-13T01:56:45;12.48;;;9.85;;
46731;SDS011;32477;51.474;5.696;2023-05-13T01:59:11;17.45;;;10.30;;
46731;SDS011;32477;51.474;5.696;2023-05-13T02:01:37;18.27;;;10.45;;
46731;SDS011;32477;51.474;5.696;2023-05-13T02:04:04;14.40;;;10.60;;
46731;SDS011;32477;51.474;5.696;2023-05-13T02:06:30;19.05;;;11.57;;
46731;SDS011;32477;51.474;5.696;2023-05-13T02:08:56;20.38;;;12.52;;
46731;SDS011;32477;51.474;5.696;2023-05-13T02:11:21;23.40;;;12.50;;
46731;SDS011;32477;51.474;5.696;2023-05-13T02:13:47;20.20;;;13.43;;
46731;SDS011;32477;51.474;5.696;2023-05-13T02:16:13;28.05;;;13.63;;
46731;SDS011;32477;51.474;5.696;2023-05-13T02:18:40;21.45;;;12.82;;
46731;SDS011;32477;51.474;5.696;2023-05-13T02:21:05;15.98;;;11.48;;
46731;SDS011;32477;51.474;5.696;2023-05-13T02:23:31;20.13;;;13.73;;
46731;SDS011;32477;51.474;5.696;2023-05-13T02:25:57;18.08;;;13.65;;
46731;SDS011;32477;51.474;5.696;2023-05-13T02:28:22;24.52;;;15.23;;
46731;SDS011;32477;51.474;5.696;2023-05-13T02:30:48;20.27;;;14.10;;
46731;SDS011;32477;51.474;5.696;2023-05-13T02:33:14;21.17;;;14.35;;
46731;SDS011;32477;51.474;5.696;2023-05-13T02:35:40;20.83;;;14.13;;
46731;SDS011;32477;51.474;5.696;2023-05-13T02:38:08;21.63;;;14.15;;
46731;SDS011;32477;51.474;5.696;2023-05-13T02:40:34;23.38;;;14.18;;
46731;SDS011;32477;51.474;5.696;2023-05-13T02:42:59;23.33;;;15.18;;
46731;SDS011;32477;51.474;5.696;2023-05-13T02:45:25;28.75;;;16.00;;
46731;SDS011;32477;51.474;5.696;2023-05-13T02:47:51;23.45;;;15.30;;
46731;SDS011;32477;51.474;5.696;2023-05-13T02:50:16;26.15;;;16.65;;
46731;SDS011;32477;51.474;5.696;2023-05-13T02:52:43;24.38;;;15.80;;
46731;SDS011;32477;51.474;5.696;2023-05-13T02:55:08;38.90;;;16.75;;
46731;SDS011;32477;51.474;5.696;2023-05-13T02:57:34;26.67;;;17.52;;
46731;SDS011;32477;51.474;5.696;2023-05-13T03:00:02;32.47;;;18.20;;
46731;SDS011;32477;51.474;5.696;2023-05-13T03:02:28;28.42;;;16.65;;
46731;SDS011;32477;51.474;5.696;2023-05-13T03:04:55;25.77;;;16.52;;
46731;SDS011;32477;51.474;5.696;2023-05-13T03:07:21;20.70;;;15.57;;
46731;SDS011;32477;51.474;5.696;2023-05-13T03:09:47;22.20;;;15.65;;
46731;SDS011;32477;51.474;5.696;2023-05-13T03:12:13;25.52;;;15.70;;
46731;SDS011;32477;51.474;5.696;2023-05-13T03:14:39;22.48;;;14.85;;
46731;SDS011;32477;51.474;5.696;2023-05-13T03:17:06;29.65;;;15.65;;
46731;SDS011;32477;51.474;5.696;2023-05-13T03:19:34;25.02;;;14.57;;
46731;SDS011;32477;51.474;5.696;2023-05-13T03:22:00;20.95;;;13.82;;
46731;SDS011;32477;51.474;5.696;2023-05-13T03:24:26;22.95;;;15.02;;
46731;SDS011;32477;51.474;5.696;2023-05-13T03:26:52;23.02;;;15.30;;
46731;SDS011;32477;51.474;5.696;2023-05-13T03:29:17;19.23;;;13.07;;
46731;SDS011;32477;51.474;5.696;2023-05-13T03:31:43;22.23;;;14.93;;
46731;SDS011;32477;51.474;5.696;2023-05-13T03:34:09;21.67;;;14.15;;
46731;SDS011;32477;51.474;5.696;2023-05-13T03:36:35;22.90;;;15.75;;
46731;SDS011;32477;51.474;5.696;2023-05-13T03:39:01;22.92;;;15.32;;
46731;SDS011;32477;51.474;5.696;2023-05-13T03:41:27;22.70;;;14.48;;
46731;SDS011;32477;51.474;5.696;2023-05-13T03:43:53;20.45;;;14.55;;
46731;SDS011;32477;51.474;5.696;2023-05-13T03:46:18;22.08;;;14.73;;
46731;SDS011;32477;51.474;5.696;2023-05-13T03:48:45;21.55;;;14.02;;
46731;SDS011;32477;51.474;5.696;2023-05-13T03:51:11;24.15;;;15.23;;
46731;SDS011;32477;51.474;5.696;2023-05-13T03:53:36;23.83;;;15.45;;
46731;SDS011;32477;51.474;5.696;2023-05-13T03:56:02;23.77;;;15.27;;
46731;SDS011;32477;51.474;5.696;2023-05-13T03:58:28;25.83;;;16.17;;
46731;SDS011;32477;51.474;5.696;2023-05-13T04:00:57;24.98;;;16.25;;
46731;SDS011;32477;51.474;5.696;2023-05-13T04:03:22;24.40;;;15.65;;
46731;SDS011;32477;51.474;5.696;2023-05-13T04:05:48;25.65;;;17.05;;
46731;SDS011;32477;51.474;5.696;2023-05-13T04:08:15;27.05;;;17.98;;
46731;SDS011;32477;51.474;5.696;2023-05-13T04:10:40;26.45;;;16.27;;
46731;SDS011;32477;51.474;5.696;2023-05-13T04:13:06;27.88;;;17.55;;
46731;SDS011;32477;51.474;5.696;2023-05-13T04:15:32;25.42;;;16.63;;
46731;SDS011;32477;51.474;5.696;2023-05-13T04:17:58;26.52;;;17.13;;
46731;SDS011;32477;51.474;5.696;2023-05-13T04:20:24;24.20;;;16.80;;
46731;SDS011;32477;51.474;5.696;2023-05-13T04:22:53;26.55;;;16.95;;
46731;SDS011;32477;51.474;5.696;2023-05-13T04:25:18;29.65;;;17.38;;
46731;SDS011;32477;51.474;5.696;2023-05-13T04:27:44;26.77;;;17.23;;
46731;SDS011;32477;51.474;5.696;2023-05-13T04:30:11;29.60;;;18.08;;
46731;SDS011;32477;51.474;5.696;2023-05-13T04:32:38;28.95;;;17.88;;
46731;SDS011;32477;51.474;5.696;2023-05-13T04:35:05;26.17;;;17.17;;
46731;SDS011;32477;51.474;5.696;2023-05-13T04:37:31;25.75;;;16.55;;
46731;SDS011;32477;51.474;5.696;2023-05-13T04:39:57;22.48;;;16.42;;
46731;SDS011;32477;51.474;5.696;2023-05-13T04:42:23;29.33;;;17.75;;
46731;SDS011;32477;51.474;5.696;2023-05-13T04:44:48;31.25;;;18.42;;
46731;SDS011;32477;51.474;5.696;2023-05-13T04:47:15;29.92;;;16.30;;
46731;SDS011;32477;51.474;5.696;2023-05-13T04:49:40;36.60;;;17.35;;
46731;SDS011;32477;51.474;5.696;2023-05-13T04:52:06;26.35;;;15.57;;
46731;SDS011;32477;51.474;5.696;2023-05-13T04:54:32;22.15;;;15.63;;
46731;SDS011;32477;51.474;5.696;2023-05-13T04:57:00;28.80;;;16.25;;
46731;SDS011;32477;51.474;5.696;2023-05-13T04:59:26;22.30;;;16.17;;
46731;SDS011;32477;51.474;5.696;2023-05-13T05:01:52;26.08;;;16.17;;
46731;SDS011;32477;51.474;5.696;2023-05-13T05:04:18;25.10;;;14.57;;
46731;SDS011;32477;51.474;5.696;2023-05-13T05:06:45;20.40;;;14.65;;
46731;SDS011;32477;51.474;5.696;2023-05-13T05:09:10;23.95;;;15.07;;
46731;SDS011;32477;51.474;5.696;2023-05-13T05:11:37;23.25;;;13.43;;
46731;SDS011;32477;51.474;5.696;2023-05-13T05:14:02;27.25;;;14.02;;
46731;SDS011;32477;51.474;5.696;2023-05-13T05:16:28;22.50;;;14.05;;
46731;SDS011;32477;51.474;5.696;2023-05-13T05:18:54;20.83;;;13.25;;
46731;SDS011;32477;51.474;5.696;2023-05-13T05:21:19;18.17;;;13.25;;
46731;SDS011;32477;51.474;5.696;2023-05-13T05:23:45;21.55;;;12.50;;
46731;SDS011;32477;51.474;5.696;2023-05-13T05:26:11;17.90;;;12.52;;
46731;SDS011;32477;51.474;5.696;2023-05-13T05:28:36;23.25;;;12.80;;
46731;SDS011;32477;51.474;5.696;2023-05-13T05:31:04;18.23;;;12.60;;
46731;SDS011;32477;51.474;5.696;2023-05-13T05:33:30;16.92;;;12.73;;
46731;SDS011;32477;51.474;5.696;2023-05-13T05:35:56;16.48;;;12.05;;
46731;SDS011;32477;51.474;5.696;2023-05-13T05:38:21;15.75;;;10.73;;
46731;SDS011;32477;51.474;5.696;2023-05-13T05:40:49;13.20;;;9.68;;
46731;SDS011;32477;51.474;5.696;2023-05-13T05:43:15;18.20;;;10.07;;
46731;SDS011;32477;51.474;5.696;2023-05-13T05:45:41;15.80;;;9.65;;
46731;SDS011;32477;51.474;5.696;2023-05-13T05:48:08;16.17;;;9.85;;
46731;SDS011;32477;51.474;5.696;2023-05-13T05:50:34;12.88;;;10.07;;
46731;SDS011;32477;51.474;5.696;2023-05-13T05:53:00;16.30;;;9.88;;
46731;SDS011;32477;51.474;5.696;2023-05-13T05:55:26;11.90;;;8.80;;
46731;SDS011;32477;51.474;5.696;2023-05-13T05:57:56;22.75;;;9.30;;
46731;SDS011;32477;51.474;5.696;2023-05-13T06:00:22;11.85;;;9.00;;
46731;SDS011;32477;51.474;5.696;2023-05-13T06:02:48;16.02;;;9.82;;
46731;SDS011;32477;51.474;5.696;2023-05-13T06:05:14;12.05;;;8.32;;
46731;SDS011;32477;51.474;5.696;2023-05-13T06:07:40;16.48;;;8.10;;
46731;SDS011;32477;51.474;5.696;2023-05-13T06:10:06;13.05;;;8.15;;
46731;SDS011;32477;51.474;5.696;2023-05-13T06:12:32;11.15;;;8.77;;
46731;SDS011;32477;51.474;5.696;2023-05-13T06:14:58;14.98;;;8.48;;
46731;SDS011;32477;51.474;5.696;2023-05-13T06:17:24;11.27;;;8.52;;
46731;SDS011;32477;51.474;5.696;2023-05-13T06:19:50;12.55;;;8.43;;
46731;SDS011;32477;51.474;5.696;2023-05-13T06:22:15;12.00;;;7.97;;
46731;SDS011;32477;51.474;5.696;2023-05-13T06:24:41;13.88;;;8.65;;
46731;SDS011;32477;51.474;5.696;2023-05-13T06:27:11;10.40;;;8.20;;
46731;SDS011;32477;51.474;5.696;2023-05-13T06:29:37;13.68;;;9.18;;
46731;SDS011;32477;51.474;5.696;2023-05-13T06:32:03;23.70;;;11.10;;
46731;SDS011;32477;51.474;5.696;2023-05-13T06:34:29;10.07;;;8.20;;
46731;SDS011;32477;51.474;5.696;2023-05-13T06:36:55;20.27;;;8.65;;
46731;SDS011;32477;51.474;5.696;2023-05-13T06:39:20;12.40;;;8.60;;
46731;SDS011;32477;51.474;5.696;2023-05-13T06:41:46;10.95;;;9.07;;
46731;SDS011;32477;51.474;5.696;2023-05-13T06:44:11;12.43;;;10.07;;
46731;SDS011;32477;51.474;5.696;2023-05-13T06:46:37;17.50;;;10.48;;
46731;SDS011;32477;51.474;5.696;2023-05-13T06:49:03;15.38;;;9.18;;
46731;SDS011;32477;51.474;5.696;2023-05-13T06:51:28;19.38;;;9.45;;
46731;SDS011;32477;51.474;5.696;2023-05-13T06:53:56;14.32;;;8.85;;
46731;SDS011;32477;51.474;5.696;2023-05-13T06:56:22;13.32;;;8.30;;
46731;SDS011;32477;51.474;5.696;2023-05-13T06:58:51;13.10;;;8.88;;
46731;SDS011;32477;51.474;5.696;2023-05-13T07:01:17;16.60;;;9.27;;
46731;SDS011;32477;51.474;5.696;2023-05-13T07:03:43;12.50;;;8.80;;
46731;SDS011;32477;51.474;5.696;2023-05-13T07:06:09;13.57;;;9.30;;
46731;SDS011;32477;51.474;5.696;2023-05-13T07:08:35;14.27;;;9.98;;
46731;SDS011;32477;51.474;5.696;2023-05-13T07:11:01;14.25;;;9.13;;
46731;SDS011;32477;51.474;5.696;2023-05-13T07:13:27;14.40;;;9.65;;
46731;SDS011;32477;51.474;5.696;2023-05-13T07:15:54;12.40;;;8.80;;
46731;SDS011;32477;51.474;5.696;2023-05-13T07:18:19;14.43;;;9.60;;
46731;SDS011;32477;51.474;5.696;2023-05-13T07:20:45;14.75;;;9.23;;
46731;SDS011;32477;51.474;5.696;2023-05-13T07:23:10;19.83;;;9.55;;
46731;SDS011;32477;51.474;5.696;2023-05-13T07:25:36;16.50;;;9.30;;
46731;SDS011;32477;51.474;5.696;2023-05-13T07:28:02;13.73;;;9.45;;
46731;SDS011;32477;51.474;5.696;2023-05-13T07:30:28;16.35;;;10.70;;
46731;SDS011;32477;51.474;5.696;2023-05-13T07:32:54;17.13;;;9.65;;
46731;SDS011;32477;51.474;5.696;2023-05-13T07:35:19;14.20;;;9.60;;
46731;SDS011;32477;51.474;5.696;2023-05-13T07:37:45;15.75;;;10.60;;
46731;SDS011;32477;51.474;5.696;2023-05-13T07:40:11;15.90;;;10.30;;
46731;SDS011;32477;51.474;5.696;2023-05-13T07:42:37;15.05;;;10.18;;
46731;SDS011;32477;51.474;5.696;2023-05-13T07:45:04;28.17;;;10.02;;
46731;SDS011;32477;51.474;5.696;2023-05-13T07:47:32;17.63;;;10.90;;
46731;SDS011;32477;51.474;5.696;2023-05-13T07:49:58;15.55;;;10.40;;
46731;SDS011;32477;51.474;5.696;2023-05-13T07:52:24;11.98;;;10.43;;
46731;SDS011;32477;51.474;5.696;2023-05-13T07:54:50;13.60;;;9.45;;
46731;SDS011;32477;51.474;5.696;2023-05-13T07:57:16;18.55;;;13.00;;
46731;SDS011;32477;51.474;5.696;2023-05-13T07:59:41;13.63;;;9.98;;
46731;SDS011;32477;51.474;5.696;2023-05-13T08:02:07;15.80;;;10.57;;
46731;SDS011;32477;51.474;5.696;2023-05-13T08:04:33;19.00;;;10.57;;
46731;SDS011;32477;51.474;5.696;2023-05-13T08:07:02;18.95;;;11.32;;
46731;SDS011;32477;51.474;5.696;2023-05-13T08:09:28;11.88;;;10.05;;
46731;SDS011;32477;51.474;5.696;2023-05-13T08:11:54;13.75;;;9.50;;
46731;SDS011;32477;51.474;5.696;2023-05-13T08:14:20;15.93;;;10.70;;
46731;SDS011;32477;51.474;5.696;2023-05-13T08:16:46;15.77;;;9.70;;
46731;SDS011;32477;51.474;5.696;2023-05-13T08:19:15;16.17;;;10.25;;
46731;SDS011;32477;51.474;5.696;2023-05-13T08:21:40;15.93;;;10.55;;
46731;SDS011;32477;51.474;5.696;2023-05-13T08:24:06;15.20;;;9.50;;
46731;SDS011;32477;51.474;5.696;2023-05-13T08:26:32;12.23;;;9.95;;
46731;SDS011;32477;51.474;5.696;2023-05-13T08:28:58;12.63;;;10.15;;
46731;SDS011;32477;51.474;5.696;2023-05-13T08:31:24;15.85;;;10.00;;
46731;SDS011;32477;51.474;5.696;2023-05-13T08:33:50;19.95;;;10.23;;
46731;SDS011;32477;51.474;5.696;2023-05-13T08:36:17;15.05;;;10.18;;
46731;SDS011;32477;51.474;5.696;2023-05-13T08:38:43;15.90;;;10.93;;
46731;SDS011;32477;51.474;5.696;2023-05-13T08:41:11;13.75;;;9.93;;
46731;SDS011;32477;51.474;5.696;2023-05-13T08:43:37;12.43;;;9.90;;
46731;SDS011;32477;51.474;5.696;2023-05-13T08:46:03;15.60;;;9.55;;
46731;SDS011;32477;51.474;5.696;2023-05-13T08:48:33;11.63;;;10.35;;
46731;SDS011;32477;51.474;5.696;2023-05-13T08:50:59;12.93;;;10.02;;
46731;SDS011;32477;51.474;5.696;2023-05-13T08:53:28;25.50;;;10.48;;
46731;SDS011;32477;51.474;5.696;2023-05-13T08:55:55;12.85;;;10.35;;
46731;SDS011;32477;51.474;5.696;2023-05-13T08:58:22;15.45;;;9.88;;
46731;SDS011;32477;51.474;5.696;2023-05-13T09:00:48;17.48;;;10.43;;
46731;SDS011;32477;51.474;5.696;2023-05-13T09:03:15;11.98;;;10.15;;
46731;SDS011;32477;51.474;5.696;2023-05-13T09:05:43;18.02;;;10.57;;
46731;SDS011;32477;51.474;5.696;2023-05-13T09:08:08;10.75;;;8.55;;
46731;SDS011;32477;51.474;5.696;2023-05-13T09:10:35;15.40;;;10.38;;
46731;SDS011;32477;51.474;5.696;2023-05-13T09:13:01;12.55;;;9.32;;
46731;SDS011;32477;51.474;5.696;2023-05-13T09:15:28;12.90;;;9.70;;
46731;SDS011;32477;51.474;5.696;2023-05-13T09:18:04;16.15;;;10.35;;
46731;SDS011;32477;51.474;5.696;2023-05-13T09:20:31;18.77;;;10.48;;
46731;SDS011;32477;51.474;5.696;2023-05-13T09:22:58;13.32;;;10.55;;
46731;SDS011;32477;51.474;5.696;2023-05-13T09:25:26;14.40;;;10.00;;
46731;SDS011;32477;51.474;5.696;2023-05-13T09:27:59;14.55;;;9.32;;
46731;SDS011;32477;51.474;5.696;2023-05-13T09:30:27;12.88;;;10.35;;
46731;SDS011;32477;51.474;5.696;2023-05-13T09:33:05;11.43;;;9.00;;
46731;SDS011;32477;51.474;5.696;2023-05-13T09:35:39;11.00;;;9.83;;
46731;SDS011;32477;51.474;5.696;2023-05-13T09:40:38;10.63;;;9.15;;
46731;SDS011;32477;51.474;5.696;2023-05-13T09:43:04;11.38;;;9.68;;
46731;SDS011;32477;51.474;5.696;2023-05-13T09:45:32;16.48;;;9.65;;
46731;SDS011;32477;51.474;5.696;2023-05-13T09:47:58;17.55;;;9.45;;
46731;SDS011;32477;51.474;5.696;2023-05-13T09:50:23;21.00;;;9.00;;
46731;SDS011;32477;51.474;5.696;2023-05-13T09:52:49;13.23;;;8.85;;
46731;SDS011;32477;51.474;5.696;2023-05-13T09:55:15;11.48;;;8.63;;
46731;SDS011;32477;51.474;5.696;2023-05-13T09:57:40;11.77;;;7.57;;
46731;SDS011;32477;51.474;5.696;2023-05-13T10:00:06;12.35;;;8.32;;
46731;SDS011;32477;51.474;5.696;2023-05-13T10:02:33;9.95;;;7.85;;
46731;SDS011;32477;51.474;5.696;2023-05-13T10:04:59;14.75;;;7.38;;
46731;SDS011;32477;51.474;5.696;2023-05-13T10:07:26;12.65;;;7.68;;
46731;SDS011;32477;51.474;5.696;2023-05-13T10:09:57;13.10;;;7.43;;
46731;SDS011;32477;51.474;5.696;2023-05-13T10:12:25;12.40;;;7.25;;
46731;SDS011;32477;51.474;5.696;2023-05-13T10:14:52;8.85;;;7.15;;
46731;SDS011;32477;51.474;5.696;2023-05-13T10:17:22;10.52;;;7.35;;
46731;SDS011;32477;51.474;5.696;2023-05-13T10:19:49;8.50;;;6.63;;
46731;SDS011;32477;51.474;5.696;2023-05-13T10:22:28;8.32;;;6.05;;
46731;SDS011;32477;51.474;5.696;2023-05-13T10:24:55;12.40;;;5.40;;
46731;SDS011;32477;51.474;5.696;2023-05-13T10:27:26;11.52;;;6.07;;
46731;SDS011;32477;51.474;5.696;2023-05-13T10:29:54;8.38;;;5.53;;
46731;SDS011;32477;51.474;5.696;2023-05-13T10:32:25;10.40;;;5.53;;
46731;SDS011;32477;51.474;5.696;2023-05-13T10:34:53;12.57;;;5.30;;
46731;SDS011;32477;51.474;5.696;2023-05-13T10:42:42;10.85;;;5.45;;
46731;SDS011;32477;51.474;5.696;2023-05-13T10:45:15;10.20;;;5.28;;
46731;SDS011;32477;51.474;5.696;2023-05-13T10:47:41;9.85;;;5.13;;
46731;SDS011;32477;51.474;5.696;2023-05-13T10:50:23;6.72;;;4.80;;
46731;SDS011;32477;51.474;5.696;2023-05-13T10:52:49;6.55;;;5.45;;
46731;SDS011;32477;51.474;5.696;2023-05-13T10:55:19;8.45;;;6.18;;
46731;SDS011;32477;51.474;5.696;2023-05-13T11:00:43;7.82;;;5.78;;
46731;SDS011;32477;51.474;5.696;2023-05-13T11:03:12;10.35;;;5.47;;
46731;SDS011;32477;51.474;5.696;2023-05-13T11:08:59;11.07;;;5.20;;
46731;SDS011;32477;51.474;5.696;2023-05-13T11:11:26;8.88;;;5.45;;
46731;SDS011;32477;51.474;5.696;2023-05-13T11:13:55;7.35;;;4.80;;
46731;SDS011;32477;51.474;5.696;2023-05-13T11:16:29;9.45;;;5.35;;
46731;SDS011;32477;51.474;5.696;2023-05-13T11:18:55;8.40;;;4.55;;
46731;SDS011;32477;51.474;5.696;2023-05-13T11:21:28;6.80;;;5.07;;
46731;SDS011;32477;51.474;5.696;2023-05-13T11:24:03;7.15;;;4.90;;
46731;SDS011;32477;51.474;5.696;2023-05-13T11:26:52;9.82;;;4.45;;
46731;SDS011;32477;51.474;5.696;2023-05-13T11:29:32;7.47;;;4.55;;
46731;SDS011;32477;51.474;5.696;2023-05-13T11:32:05;10.00;;;4.53;;
46731;SDS011;32477;51.474;5.696;2023-05-13T11:34:32;7.22;;;4.22;;
46731;SDS011;32477;51.474;5.696;2023-05-13T11:37:08;8.38;;;4.60;;
46731;SDS011;32477;51.474;5.696;2023-05-13T11:39:35;8.75;;;4.78;;
46731;SDS011;32477;51.474;5.696;2023-05-13T11:42:05;7.57;;;4.72;;
46731;SDS011;32477;51.474;5.696;2023-05-13T11:44:32;7.90;;;4.20;;
46731;SDS011;32477;51.474;5.696;2023-05-13T11:47:03;7.93;;;3.92;;
46731;SDS011;32477;51.474;5.696;2023-05-13T11:49:39;14.98;;;5.18;;
46731;SDS011;32477;51.474;5.696;2023-05-13T11:52:06;6.82;;;4.70;;
46731;SDS011;32477;51.474;5.696;2023-05-13T11:54:42;8.23;;;4.80;;
46731;SDS011;32477;51.474;5.696;2023-05-13T11:57:25;6.22;;;4.22;;
46731;SDS011;32477;51.474;5.696;2023-05-13T11:59:58;8.13;;;4.03;;
46731;SDS011;32477;51.474;5.696;2023-05-13T12:04:57;7.28;;;4.55;;
46731;SDS011;32477;51.474;5.696;2023-05-13T12:07:25;8.30;;;5.20;;
46731;SDS011;32477;51.474;5.696;2023-05-13T12:09:51;15.88;;;5.15;;
46731;SDS011;32477;51.474;5.696;2023-05-13T12:12:19;5.25;;;4.57;;
46731;SDS011;32477;51.474;5.696;2023-05-13T12:14:46;9.57;;;5.20;;
46731;SDS011;32477;51.474;5.696;2023-05-13T12:17:14;10.10;;;4.80;;
46731;SDS011;32477;51.474;5.696;2023-05-13T12:22:35;13.23;;;4.70;;
46731;SDS011;32477;51.474;5.696;2023-05-13T12:25:47;12.30;;;5.20;;
46731;SDS011;32477;51.474;5.696;2023-05-13T12:27:57;8.70;;;4.85;;
46731;SDS011;32477;51.474;5.696;2023-05-13T12:30:23;8.15;;;5.13;;
46731;SDS011;32477;51.474;5.696;2023-05-13T12:32:49;7.07;;;4.85;;
46731;SDS011;32477;51.474;5.696;2023-05-13T12:35:15;7.38;;;4.60;;
46731;SDS011;32477;51.474;5.696;2023-05-13T12:37:41;7.10;;;4.70;;
46731;SDS011;32477;51.474;5.696;2023-05-13T12:40:10;8.93;;;4.63;;
46731;SDS011;32477;51.474;5.696;2023-05-13T12:42:36;6.85;;;5.72;;
46731;SDS011;32477;51.474;5.696;2023-05-13T12:45:02;6.18;;;4.22;;
46731;SDS011;32477;51.474;5.696;2023-05-13T12:47:28;7.68;;;5.75;;
46731;SDS011;32477;51.474;5.696;2023-05-13T12:49:54;10.38;;;4.68;;
46731;SDS011;32477;51.474;5.696;2023-05-13T12:52:22;14.85;;;5.07;;
46731;SDS011;32477;51.474;5.696;2023-05-13T12:54:48;9.25;;;4.70;;
46731;SDS011;32477;51.474;5.696;2023-05-13T12:57:17;6.80;;;4.90;;
46731;SDS011;32477;51.474;5.696;2023-05-13T12:59:44;5.72;;;4.57;;
46731;SDS011;32477;51.474;5.696;2023-05-13T13:02:10;9.63;;;4.68;;
46731;SDS011;32477;51.474;5.696;2023-05-13T13:04:36;6.32;;;4.57;;
46731;SDS011;32477;51.474;5.696;2023-05-13T13:07:02;6.07;;;3.78;;
46731;SDS011;32477;51.474;5.696;2023-05-13T13:09:29;7.05;;;4.70;;
46731;SDS011;32477;51.474;5.696;2023-05-13T13:11:54;12.98;;;4.47;;
46731;SDS011;32477;51.474;5.696;2023-05-13T13:14:20;9.00;;;4.13;;
46731;SDS011;32477;51.474;5.696;2023-05-13T13:16:47;9.98;;;4.20;;
46731;SDS011;32477;51.474;5.696;2023-05-13T13:19:13;8.85;;;4.38;;
46731;SDS011;32477;51.474;5.696;2023-05-13T13:21:38;8.55;;;4.05;;
46731;SDS011;32477;51.474;5.696;2023-05-13T13:24:04;5.38;;;3.60;;
46731;SDS011;32477;51.474;5.696;2023-05-13T13:26:30;6.78;;;4.35;;
46731;SDS011;32477;51.474;5.696;2023-05-13T13:28:56;6.43;;;4.15;;
46731;SDS011;32477;51.474;5.696;2023-05-13T13:31:21;11.52;;;4.00;;
46731;SDS011;32477;51.474;5.696;2023-05-13T13:33:47;7.68;;;4.05;;
46731;SDS011;32477;51.474;5.696;2023-05-13T13:36:12;4.68;;;3.58;;
46731;SDS011;32477;51.474;5.696;2023-05-13T13:38:39;5.88;;;3.55;;
46731;SDS011;32477;51.474;5.696;2023-05-13T13:41:04;12.43;;;4.07;;
46731;SDS011;32477;51.474;5.696;2023-05-13T13:43:30;5.82;;;3.80;;
46731;SDS011;32477;51.474;5.696;2023-05-13T13:45:56;16.15;;;4.50;;
46731;SDS011;32477;51.474;5.696;2023-05-13T13:48:21;6.75;;;4.28;;
46731;SDS011;32477;51.474;5.696;2023-05-13T13:50:47;7.20;;;4.18;;
46731;SDS011;32477;51.474;5.696;2023-05-13T13:53:13;9.07;;;3.85;;
46731;SDS011;32477;51.474;5.696;2023-05-13T13:55:38;5.60;;;3.60;;
46731;SDS011;32477;51.474;5.696;2023-05-13T13:58:04;5.22;;;3.80;;
46731;SDS011;32477;51.474;5.696;2023-05-13T14:00:30;8.00;;;3.72;;
46731;SDS011;32477;51.474;5.696;2023-05-13T14:02:55;14.35;;;4.30;;
46731;SDS011;32477;51.474;5.696;2023-05-13T14:05:21;4.97;;;3.72;;
46731;SDS011;32477;51.474;5.696;2023-05-13T14:07:47;5.85;;;4.30;;
46731;SDS011;32477;51.474;5.696;2023-05-13T14:10:18;7.80;;;4.13;;
46731;SDS011;32477;51.474;5.696;2023-05-13T14:12:43;5.78;;;4.00;;
46731;SDS011;32477;51.474;5.696;2023-05-13T14:15:09;7.25;;;4.18;;
46731;SDS011;32477;51.474;5.696;2023-05-13T14:17:35;15.57;;;4.07;;
46731;SDS011;32477;51.474;5.696;2023-05-13T14:20:01;4.88;;;3.85;;
46731;SDS011;32477;51.474;5.696;2023-05-13T14:22:27;6.65;;;3.80;;
46731;SDS011;32477;51.474;5.696;2023-05-13T14:24:52;9.60;;;3.90;;
46731;SDS011;32477;51.474;5.696;2023-05-13T14:27:18;6.45;;;4.18;;
46731;SDS011;32477;51.474;5.696;2023-05-13T14:29:45;7.00;;;3.85;;
46731;SDS011;32477;51.474;5.696;2023-05-13T14:32:12;7.25;;;4.30;;
46731;SDS011;32477;51.474;5.696;2023-05-13T14:34:37;4.63;;;3.88;;
46731;SDS011;32477;51.474;5.696;2023-05-13T14:37:03;9.65;;;4.00;;
46731;SDS011;32477;51.474;5.696;2023-05-13T14:39:29;7.88;;;4.07;;
46731;SDS011;32477;51.474;5.696;2023-05-13T14:41:55;9.90;;;4.38;;
46731;SDS011;32477;51.474;5.696;2023-05-13T14:44:21;10.20;;;4.35;;
46731;SDS011;32477;51.474;5.696;2023-05-13T14:46:47;12.02;;;4.25;;
46731;SDS011;32477;51.474;5.696;2023-05-13T14:49:12;9.55;;;4.72;;
46731;SDS011;32477;51.474;5.696;2023-05-13T14:51:38;9.05;;;4.63;;
46731;SDS011;32477;51.474;5.696;2023-05-13T14:54:04;6.50;;;3.58;;
46731;SDS011;32477;51.474;5.696;2023-05-13T14:56:29;9.95;;;3.90;;
46731;SDS011;32477;51.474;5.696;2023-05-13T14:58:55;6.85;;;3.70;;
46731;SDS011;32477;51.474;5.696;2023-05-13T15:01:21;6.15;;;3.65;;
46731;SDS011;32477;51.474;5.696;2023-05-13T15:03:47;6.47;;;3.40;;